sensor_id;sensor_type;location;lat;lon;timestamp;P1;durP1;ratioP1;P2;durP2;ratioP2
14883;SDS011;7534;50.762;7.000;2023-05-10T00:02:09;3.23;;;2.97;;
14883;SDS011;7534;50.762;7.000;2023-05-10T00:04:34;3.60;;;3.30;;
14883;SDS011;7534;50.762;7.000;2023-05-10T00:07:00;3.43;;;3.13;;
14883;SDS011;7534;50.762;7.000;2023-05-10T00:09:26;4.07;;;3.20;;
14883;SDS011;7534;50.762;7.000;2023-05-10T00:11:52;3.60;;;3.30;;
14883;SDS011;7534;50.762;7.000;2023-05-10T00:14:18;5.17;;;3.60;;
14883;SDS011;7534;50.762;7.000;2023-05-10T00:16:44;3.63;;;3.03;;
14883;SDS011;7534;50.762;7.000;2023-05-10T00:19:09;3.87;;;3.50;;
14883;SDS011;7534;50.762;7.000;2023-05-10T00:21:35;3.93;;;3.40;;
14883;SDS011;7534;50.762;7.000;2023-05-10T00:24:01;4.13;;;3.73;;
14883;SDS011;7534;50.762;7.000;2023-05-10T00:26:27;4.20;;;3.70;;
14883;SDS011;7534;50.762;7.000;2023-05-10T00:28:52;5.63;;;3.80;;
14883;SDS011;7534;50.762;7.000;2023-05-10T00:31:18;5.10;;;4.13;;
14883;SDS011;7534;50.762;7.000;2023-05-10T00:33:44;4.30;;;3.87;;
14883;SDS011;7534;50.762;7.000;2023-05-10T00:36:10;4.73;;;3.90;;
14883;SDS011;7534;50.762;7.000;2023-05-10T00:38:36;4.23;;;3.83;;
14883;SDS011;7534;50.762;7.000;2023-05-10T00:41:02;5.20;;;4.07;;
14883;SDS011;7534;50.762;7.000;2023-05-10T00:43:28;4.07;;;3.67;;
14883;SDS011;7534;50.762;7.000;2023-05-10T00:45:53;5.13;;;3.80;;
14883;SDS011;7534;50.762;7.000;2023-05-10T00:48:19;4.47;;;3.60;;
14883;SDS011;7534;50.762;7.000;2023-05-10T00:50:46;6.77;;;3.80;;
14883;SDS011;7534;50.762;7.000;2023-05-10T00:53:12;4.10;;;3.37;;
14883;SDS011;7534;50.762;7.000;2023-05-10T00:55:38;7.13;;;3.20;;
14883;SDS011;7534;50.762;7.000;2023-05-10T00:58:04;4.90;;;3.50;;
14883;SDS011;7534;50.762;7.000;2023-05-10T01:00:30;4.63;;;3.27;;
14883;SDS011;7534;50.762;7.000;2023-05-10T01:02:58;3.77;;;2.97;;
14883;SDS011;7534;50.762;7.000;2023-05-10T01:05:24;3.50;;;3.20;;
14883;SDS011;7534;50.762;7.000;2023-05-10T01:07:51;3.83;;;2.70;;
14883;SDS011;7534;50.762;7.000;2023-05-10T01:10:17;4.87;;;2.70;;
14883;SDS011;7534;50.762;7.000;2023-05-10T01:12:44;2.67;;;2.47;;
14883;SDS011;7534;50.762;7.000;2023-05-10T01:15:12;3.27;;;2.47;;
14883;SDS011;7534;50.762;7.000;2023-05-10T01:17:40;4.93;;;2.50;;
14883;SDS011;7534;50.762;7.000;2023-05-10T01:20:10;2.27;;;2.10;;
14883;SDS011;7534;50.762;7.000;2023-05-10T01:29:40;2.37;;;2.03;;
14883;SDS011;7534;50.762;7.000;2023-05-10T01:34:59;2.80;;;2.50;;
14883;SDS011;7534;50.762;7.000;2023-05-10T01:37:52;2.70;;;2.30;;
14883;SDS011;7534;50.762;7.000;2023-05-10T01:41:07;2.80;;;2.60;;
14883;SDS011;7534;50.762;7.000;2023-05-10T01:46:24;2.70;;;2.50;;
14883;SDS011;7534;50.762;7.000;2023-05-10T01:49:00;2.70;;;2.50;;
14883;SDS011;7534;50.762;7.000;2023-05-10T01:51:35;2.90;;;2.60;;
14883;SDS011;7534;50.762;7.000;2023-05-10T01:54:12;2.50;;;2.30;;
14883;SDS011;7534;50.762;7.000;2023-05-10T01:56:42;3.53;;;2.50;;
14883;SDS011;7534;50.762;7.000;2023-05-10T01:59:13;5.13;;;2.30;;
14883;SDS011;7534;50.762;7.000;2023-05-10T02:01:44;3.20;;;2.50;;
14883;SDS011;7534;50.762;7.000;2023-05-10T02:04:14;2.40;;;2.20;;
14883;SDS011;7534;50.762;7.000;2023-05-10T02:06:44;3.30;;;2.43;;
14883;SDS011;7534;50.762;7.000;2023-05-10T02:09:12;2.97;;;2.60;;
14883;SDS011;7534;50.762;7.000;2023-05-10T02:11:42;3.27;;;2.60;;
14883;SDS011;7534;50.762;7.000;2023-05-10T02:14:09;4.10;;;2.83;;
14883;SDS011;7534;50.762;7.000;2023-05-10T02:16:36;3.13;;;2.77;;
14883;SDS011;7534;50.762;7.000;2023-05-10T02:19:04;4.10;;;3.20;;
14883;SDS011;7534;50.762;7.000;2023-05-10T02:21:33;3.97;;;3.33;;
14883;SDS011;7534;50.762;7.000;2023-05-10T02:24:00;4.47;;;3.60;;
14883;SDS011;7534;50.762;7.000;2023-05-10T02:26:29;4.27;;;3.77;;
14883;SDS011;7534;50.762;7.000;2023-05-10T02:28:58;5.47;;;4.00;;
14883;SDS011;7534;50.762;7.000;2023-05-10T02:31:28;5.77;;;4.53;;
14883;SDS011;7534;50.762;7.000;2023-05-10T02:33:59;7.10;;;5.37;;
14883;SDS011;7534;50.762;7.000;2023-05-10T02:36:27;7.13;;;5.40;;
14883;SDS011;7534;50.762;7.000;2023-05-10T02:38:56;8.03;;;6.30;;
14883;SDS011;7534;50.762;7.000;2023-05-10T02:41:25;7.90;;;6.10;;
14883;SDS011;7534;50.762;7.000;2023-05-10T02:43:53;10.07;;;7.10;;
14883;SDS011;7534;50.762;7.000;2023-05-10T02:46:24;10.00;;;7.10;;
14883;SDS011;7534;50.762;7.000;2023-05-10T02:48:50;7.00;;;5.67;;
14883;SDS011;7534;50.762;7.000;2023-05-10T02:51:18;8.53;;;6.50;;
14883;SDS011;7534;50.762;7.000;2023-05-10T02:53:49;7.30;;;5.63;;
14883;SDS011;7534;50.762;7.000;2023-05-10T02:56:33;7.77;;;4.80;;
14883;SDS011;7534;50.762;7.000;2023-05-10T02:59:04;6.10;;;4.67;;
14883;SDS011;7534;50.762;7.000;2023-05-10T03:01:30;5.60;;;4.90;;
14883;SDS011;7534;50.762;7.000;2023-05-10T03:03:56;7.47;;;5.50;;
14883;SDS011;7534;50.762;7.000;2023-05-10T03:06:22;12.43;;;7.20;;
14883;SDS011;7534;50.762;7.000;2023-05-10T03:08:48;10.47;;;7.33;;
14883;SDS011;7534;50.762;7.000;2023-05-10T03:14:20;10.50;;;7.23;;
14883;SDS011;7534;50.762;7.000;2023-05-10T03:17:00;10.83;;;7.00;;
14883;SDS011;7534;50.762;7.000;2023-05-10T03:22:08;11.07;;;7.33;;
14883;SDS011;7534;50.762;7.000;2023-05-10T03:24:38;10.37;;;7.03;;
14883;SDS011;7534;50.762;7.000;2023-05-10T03:27:07;12.07;;;6.93;;
14883;SDS011;7534;50.762;7.000;2023-05-10T03:29:34;11.37;;;7.47;;
14883;SDS011;7534;50.762;7.000;2023-05-10T03:32:01;13.10;;;7.73;;
14883;SDS011;7534;50.762;7.000;2023-05-10T03:34:27;12.83;;;8.73;;
14883;SDS011;7534;50.762;7.000;2023-05-10T03:36:56;16.13;;;9.63;;
14883;SDS011;7534;50.762;7.000;2023-05-10T03:39:23;16.07;;;9.77;;
14883;SDS011;7534;50.762;7.000;2023-05-10T03:41:49;15.67;;;9.53;;
14883;SDS011;7534;50.762;7.000;2023-05-10T03:44:15;15.93;;;9.77;;
14883;SDS011;7534;50.762;7.000;2023-05-10T03:46:41;17.57;;;10.63;;
14883;SDS011;7534;50.762;7.000;2023-05-10T03:49:06;20.03;;;11.40;;
14883;SDS011;7534;50.762;7.000;2023-05-10T03:51:32;20.87;;;11.80;;
14883;SDS011;7534;50.762;7.000;2023-05-10T03:53:58;21.20;;;12.17;;
14883;SDS011;7534;50.762;7.000;2023-05-10T03:56:23;21.30;;;13.73;;
14883;SDS011;7534;50.762;7.000;2023-05-10T03:58:49;23.30;;;13.60;;
14883;SDS011;7534;50.762;7.000;2023-05-10T04:01:15;23.97;;;14.60;;
14883;SDS011;7534;50.762;7.000;2023-05-10T04:03:40;22.27;;;14.83;;
14883;SDS011;7534;50.762;7.000;2023-05-10T04:06:06;26.90;;;15.10;;
14883;SDS011;7534;50.762;7.000;2023-05-10T04:08:33;23.03;;;14.33;;
14883;SDS011;7534;50.762;7.000;2023-05-10T04:11:06;26.07;;;16.30;;
14883;SDS011;7534;50.762;7.000;2023-05-10T04:13:33;28.73;;;16.50;;
14883;SDS011;7534;50.762;7.000;2023-05-10T04:16:01;26.10;;;15.87;;
14883;SDS011;7534;50.762;7.000;2023-05-10T04:18:27;26.57;;;16.27;;
14883;SDS011;7534;50.762;7.000;2023-05-10T04:20:52;26.30;;;16.07;;
14883;SDS011;7534;50.762;7.000;2023-05-10T04:23:19;26.30;;;16.00;;
14883;SDS011;7534;50.762;7.000;2023-05-10T04:25:45;28.03;;;17.43;;
14883;SDS011;7534;50.762;7.000;2023-05-10T04:28:10;24.83;;;16.10;;
14883;SDS011;7534;50.762;7.000;2023-05-10T04:30:36;27.33;;;16.90;;
14883;SDS011;7534;50.762;7.000;2023-05-10T04:33:02;24.63;;;16.57;;
14883;SDS011;7534;50.762;7.000;2023-05-10T04:35:28;27.33;;;17.40;;
14883;SDS011;7534;50.762;7.000;2023-05-10T04:37:54;28.23;;;17.60;;
14883;SDS011;7534;50.762;7.000;2023-05-10T04:40:19;29.00;;;17.13;;
14883;SDS011;7534;50.762;7.000;2023-05-10T04:42:46;28.70;;;17.83;;
14883;SDS011;7534;50.762;7.000;2023-05-10T04:45:12;33.20;;;17.23;;
14883;SDS011;7534;50.762;7.000;2023-05-10T04:47:39;28.90;;;17.83;;
14883;SDS011;7534;50.762;7.000;2023-05-10T04:50:06;29.37;;;18.60;;
14883;SDS011;7534;50.762;7.000;2023-05-10T04:52:33;30.07;;;17.30;;
14883;SDS011;7534;50.762;7.000;2023-05-10T04:54:59;32.43;;;18.40;;
14883;SDS011;7534;50.762;7.000;2023-05-10T04:57:24;28.03;;;17.47;;
14883;SDS011;7534;50.762;7.000;2023-05-10T04:59:50;30.73;;;18.00;;
14883;SDS011;7534;50.762;7.000;2023-05-10T05:02:16;28.17;;;18.80;;
14883;SDS011;7534;50.762;7.000;2023-05-10T05:04:41;31.93;;;18.90;;
14883;SDS011;7534;50.762;7.000;2023-05-10T05:07:07;33.00;;;18.73;;
14883;SDS011;7534;50.762;7.000;2023-05-10T05:09:33;32.37;;;19.33;;
14883;SDS011;7534;50.762;7.000;2023-05-10T05:11:58;32.27;;;19.03;;
14883;SDS011;7534;50.762;7.000;2023-05-10T05:14:25;30.27;;;19.00;;
14883;SDS011;7534;50.762;7.000;2023-05-10T05:16:53;31.40;;;19.17;;
14883;SDS011;7534;50.762;7.000;2023-05-10T05:19:19;29.40;;;18.60;;
14883;SDS011;7534;50.762;7.000;2023-05-10T05:21:45;30.83;;;18.77;;
14883;SDS011;7534;50.762;7.000;2023-05-10T05:24:10;29.17;;;19.13;;
14883;SDS011;7534;50.762;7.000;2023-05-10T05:26:37;29.13;;;18.43;;
14883;SDS011;7534;50.762;7.000;2023-05-10T05:29:03;29.97;;;17.83;;
14883;SDS011;7534;50.762;7.000;2023-05-10T05:31:29;32.07;;;19.20;;
14883;SDS011;7534;50.762;7.000;2023-05-10T05:33:55;26.40;;;18.10;;
14883;SDS011;7534;50.762;7.000;2023-05-10T05:36:21;26.87;;;17.83;;
14883;SDS011;7534;50.762;7.000;2023-05-10T05:38:47;27.63;;;18.73;;
14883;SDS011;7534;50.762;7.000;2023-05-10T05:41:12;27.07;;;18.10;;
14883;SDS011;7534;50.762;7.000;2023-05-10T05:43:38;25.93;;;18.10;;
14883;SDS011;7534;50.762;7.000;2023-05-10T05:46:04;23.07;;;17.40;;
14883;SDS011;7534;50.762;7.000;2023-05-10T05:48:30;23.50;;;17.93;;
14883;SDS011;7534;50.762;7.000;2023-05-10T05:50:56;26.70;;;17.50;;
14883;SDS011;7534;50.762;7.000;2023-05-10T05:53:22;23.47;;;17.83;;
14883;SDS011;7534;50.762;7.000;2023-05-10T05:55:55;20.27;;;16.37;;
14883;SDS011;7534;50.762;7.000;2023-05-10T05:58:23;22.03;;;16.00;;
14883;SDS011;7534;50.762;7.000;2023-05-10T06:00:50;19.90;;;14.30;;
14883;SDS011;7534;50.762;7.000;2023-05-10T06:03:19;18.03;;;14.43;;
14883;SDS011;7534;50.762;7.000;2023-05-10T06:05:46;17.53;;;14.33;;
14883;SDS011;7534;50.762;7.000;2023-05-10T06:08:12;14.77;;;12.87;;
14883;SDS011;7534;50.762;7.000;2023-05-10T06:10:37;13.97;;;12.37;;
14883;SDS011;7534;50.762;7.000;2023-05-10T06:13:03;14.10;;;10.53;;
14883;SDS011;7534;50.762;7.000;2023-05-10T06:15:29;12.32;;;10.43;;
14883;SDS011;7534;50.762;7.000;2023-05-10T06:17:55;10.40;;;9.37;;
14883;SDS011;7534;50.762;7.000;2023-05-10T06:20:20;9.10;;;8.20;;
14883;SDS011;7534;50.762;7.000;2023-05-10T06:22:46;9.20;;;7.93;;
14883;SDS011;7534;50.762;7.000;2023-05-10T06:25:11;8.65;;;7.75;;
14883;SDS011;7534;50.762;7.000;2023-05-10T06:27:39;9.23;;;7.75;;
14883;SDS011;7534;50.762;7.000;2023-05-10T06:30:05;8.18;;;6.90;;
14883;SDS011;7534;50.762;7.000;2023-05-10T06:32:33;8.00;;;7.13;;
14883;SDS011;7534;50.762;7.000;2023-05-10T06:34:58;8.77;;;7.93;;
14883;SDS011;7534;50.762;7.000;2023-05-10T06:37:24;7.50;;;6.43;;
14883;SDS011;7534;50.762;7.000;2023-05-10T06:39:50;7.60;;;5.95;;
14883;SDS011;7534;50.762;7.000;2023-05-10T06:42:15;6.78;;;6.10;;
14883;SDS011;7534;50.762;7.000;2023-05-10T06:44:41;7.53;;;5.28;;
14883;SDS011;7534;50.762;7.000;2023-05-10T06:47:07;8.32;;;5.53;;
14883;SDS011;7534;50.762;7.000;2023-05-10T06:49:32;7.47;;;5.28;;
14883;SDS011;7534;50.762;7.000;2023-05-10T06:51:58;6.10;;;5.35;;
14883;SDS011;7534;50.762;7.000;2023-05-10T06:54:24;7.25;;;5.80;;
14883;SDS011;7534;50.762;7.000;2023-05-10T06:56:49;7.05;;;5.15;;
14883;SDS011;7534;50.762;7.000;2023-05-10T06:59:15;6.40;;;4.85;;
14883;SDS011;7534;50.762;7.000;2023-05-10T07:01:41;9.88;;;5.57;;
14883;SDS011;7534;50.762;7.000;2023-05-10T07:04:07;6.20;;;4.85;;
14883;SDS011;7534;50.762;7.000;2023-05-10T07:06:33;5.88;;;4.35;;
14883;SDS011;7534;50.762;7.000;2023-05-10T07:08:59;6.22;;;4.50;;
14883;SDS011;7534;50.762;7.000;2023-05-10T07:11:25;6.88;;;4.40;;
14883;SDS011;7534;50.762;7.000;2023-05-10T07:13:51;5.00;;;4.50;;
14883;SDS011;7534;50.762;7.000;2023-05-10T07:16:17;6.68;;;4.63;;
14883;SDS011;7534;50.762;7.000;2023-05-10T07:18:43;5.50;;;4.15;;
14883;SDS011;7534;50.762;7.000;2023-05-10T07:21:09;9.38;;;4.20;;
14883;SDS011;7534;50.762;7.000;2023-05-10T07:23:35;5.72;;;4.20;;
14883;SDS011;7534;50.762;7.000;2023-05-10T07:26:01;6.90;;;4.20;;
14883;SDS011;7534;50.762;7.000;2023-05-10T07:28:27;4.85;;;3.92;;
14883;SDS011;7534;50.762;7.000;2023-05-10T07:30:53;4.47;;;3.65;;
14883;SDS011;7534;50.762;7.000;2023-05-10T07:33:18;7.15;;;4.38;;
14883;SDS011;7534;50.762;7.000;2023-05-10T07:35:44;5.53;;;3.63;;
14883;SDS011;7534;50.762;7.000;2023-05-10T07:38:10;4.65;;;3.92;;
14883;SDS011;7534;50.762;7.000;2023-05-10T07:40:36;6.07;;;4.32;;
14883;SDS011;7534;50.762;7.000;2023-05-10T07:43:02;5.32;;;4.45;;
14883;SDS011;7534;50.762;7.000;2023-05-10T07:45:27;5.97;;;4.65;;
14883;SDS011;7534;50.762;7.000;2023-05-10T07:47:53;6.30;;;5.15;;
14883;SDS011;7534;50.762;7.000;2023-05-10T07:50:19;8.25;;;5.18;;
14883;SDS011;7534;50.762;7.000;2023-05-10T07:52:46;8.00;;;4.85;;
14883;SDS011;7534;50.762;7.000;2023-05-10T07:55:13;5.68;;;4.80;;
14883;SDS011;7534;50.762;7.000;2023-05-10T07:57:38;5.88;;;4.90;;
14883;SDS011;7534;50.762;7.000;2023-05-10T08:00:04;7.23;;;5.97;;
14883;SDS011;7534;50.762;7.000;2023-05-10T08:02:32;7.53;;;4.88;;
14883;SDS011;7534;50.762;7.000;2023-05-10T08:05:00;4.55;;;4.15;;
14883;SDS011;7534;50.762;7.000;2023-05-10T08:07:26;6.22;;;4.10;;
14883;SDS011;7534;50.762;7.000;2023-05-10T08:09:51;5.82;;;3.85;;
14883;SDS011;7534;50.762;7.000;2023-05-10T08:12:17;4.53;;;3.67;;
14883;SDS011;7534;50.762;7.000;2023-05-10T08:14:43;4.10;;;3.70;;
14883;SDS011;7534;50.762;7.000;2023-05-10T08:17:08;4.82;;;3.92;;
14883;SDS011;7534;50.762;7.000;2023-05-10T08:19:34;4.40;;;3.97;;
14883;SDS011;7534;50.762;7.000;2023-05-10T08:22:00;4.00;;;3.35;;
14883;SDS011;7534;50.762;7.000;2023-05-10T08:24:26;5.40;;;3.58;;
14883;SDS011;7534;50.762;7.000;2023-05-10T08:26:51;5.18;;;3.30;;
14883;SDS011;7534;50.762;7.000;2023-05-10T08:29:17;6.93;;;3.70;;
14883;SDS011;7534;50.762;7.000;2023-05-10T08:31:43;4.07;;;3.30;;
14883;SDS011;7534;50.762;7.000;2023-05-10T08:34:08;4.32;;;3.30;;
14883;SDS011;7534;50.762;7.000;2023-05-10T08:36:34;5.25;;;3.20;;
14883;SDS011;7534;50.762;7.000;2023-05-10T08:39:00;4.22;;;3.25;;
14883;SDS011;7534;50.762;7.000;2023-05-10T08:41:25;4.43;;;3.13;;
14883;SDS011;7534;50.762;7.000;2023-05-10T08:43:54;4.63;;;3.42;;
14883;SDS011;7534;50.762;7.000;2023-05-10T08:46:21;5.45;;;3.30;;
14883;SDS011;7534;50.762;7.000;2023-05-10T08:48:48;4.55;;;3.13;;
14883;SDS011;7534;50.762;7.000;2023-05-10T08:51:22;4.60;;;2.95;;
14883;SDS011;7534;50.762;7.000;2023-05-10T08:53:52;3.85;;;2.65;;
14883;SDS011;7534;50.762;7.000;2023-05-10T08:56:18;2.88;;;2.22;;
14883;SDS011;7534;50.762;7.000;2023-05-10T08:58:45;3.35;;;2.20;;
14883;SDS011;7534;50.762;7.000;2023-05-10T09:01:11;3.22;;;2.13;;
14883;SDS011;7534;50.762;7.000;2023-05-10T09:03:40;1.95;;;1.70;;
14883;SDS011;7534;50.762;7.000;2023-05-10T09:06:06;1.77;;;1.67;;
14883;SDS011;7534;50.762;7.000;2023-05-10T09:08:32;2.10;;;1.90;;
14883;SDS011;7534;50.762;7.000;2023-05-10T09:10:58;1.63;;;1.52;;
14883;SDS011;7534;50.762;7.000;2023-05-10T09:13:26;1.55;;;1.45;;
14883;SDS011;7534;50.762;7.000;2023-05-10T09:15:53;1.83;;;1.60;;
14883;SDS011;7534;50.762;7.000;2023-05-10T09:18:19;2.10;;;1.30;;
14883;SDS011;7534;50.762;7.000;2023-05-10T09:20:44;3.20;;;1.48;;
14883;SDS011;7534;50.762;7.000;2023-05-10T09:23:10;1.48;;;1.38;;
14883;SDS011;7534;50.762;7.000;2023-05-10T09:25:36;2.30;;;1.73;;
14883;SDS011;7534;50.762;7.000;2023-05-10T09:28:05;1.77;;;1.67;;
14883;SDS011;7534;50.762;7.000;2023-05-10T09:30:33;1.70;;;1.60;;
14883;SDS011;7534;50.762;7.000;2023-05-10T09:32:59;1.60;;;1.50;;
14883;SDS011;7534;50.762;7.000;2023-05-10T09:35:26;1.80;;;1.50;;
14883;SDS011;7534;50.762;7.000;2023-05-10T09:37:56;1.63;;;1.38;;
14883;SDS011;7534;50.762;7.000;2023-05-10T09:40:27;1.77;;;1.40;;
14883;SDS011;7534;50.762;7.000;2023-05-10T09:43:01;1.70;;;1.55;;
14883;SDS011;7534;50.762;7.000;2023-05-10T09:45:30;1.90;;;1.45;;
14883;SDS011;7534;50.762;7.000;2023-05-10T09:47:58;1.75;;;1.65;;
14883;SDS011;7534;50.762;7.000;2023-05-10T09:50:26;1.80;;;1.70;;
14883;SDS011;7534;50.762;7.000;2023-05-10T09:52:57;2.50;;;2.30;;
14883;SDS011;7534;50.762;7.000;2023-05-10T09:55:46;2.33;;;2.15;;
14883;SDS011;7534;50.762;7.000;2023-05-10T09:58:14;4.28;;;2.90;;
14883;SDS011;7534;50.762;7.000;2023-05-10T10:00:40;4.25;;;3.70;;
14883;SDS011;7534;50.762;7.000;2023-05-10T10:03:15;5.47;;;4.60;;
14883;SDS011;7534;50.762;7.000;2023-05-10T10:05:43;6.55;;;5.72;;
14883;SDS011;7534;50.762;7.000;2023-05-10T10:08:11;6.78;;;5.53;;
14883;SDS011;7534;50.762;7.000;2023-05-10T10:10:38;7.43;;;5.88;;
14883;SDS011;7534;50.762;7.000;2023-05-10T10:13:10;8.45;;;6.85;;
14883;SDS011;7534;50.762;7.000;2023-05-10T10:15:35;7.97;;;6.72;;
14883;SDS011;7534;50.762;7.000;2023-05-10T10:18:02;7.93;;;6.75;;
14883;SDS011;7534;50.762;7.000;2023-05-10T10:20:31;9.05;;;6.90;;
14883;SDS011;7534;50.762;7.000;2023-05-10T10:22:57;9.70;;;6.85;;
14883;SDS011;7534;50.762;7.000;2023-05-10T10:25:22;5.32;;;4.82;;
14883;SDS011;7534;50.762;7.000;2023-05-10T10:30:24;6.38;;;5.05;;
14883;SDS011;7534;50.762;7.000;2023-05-10T10:35:46;7.07;;;6.07;;
14883;SDS011;7534;50.762;7.000;2023-05-10T10:38:12;6.72;;;5.35;;
14883;SDS011;7534;50.762;7.000;2023-05-10T10:40:38;5.55;;;4.40;;
14883;SDS011;7534;50.762;7.000;2023-05-10T10:43:21;4.15;;;3.50;;
14883;SDS011;7534;50.762;7.000;2023-05-10T10:48:40;4.50;;;2.40;;
14883;SDS011;7534;50.762;7.000;2023-05-10T10:51:12;1.77;;;1.67;;
14883;SDS011;7534;50.762;7.000;2023-05-10T10:53:39;1.50;;;1.40;;
14883;SDS011;7534;50.762;7.000;2023-05-10T10:56:09;1.48;;;1.27;;
14883;SDS011;7534;50.762;7.000;2023-05-10T10:58:38;1.35;;;1.25;;
14883;SDS011;7534;50.762;7.000;2023-05-10T11:01:12;1.60;;;1.20;;
14883;SDS011;7534;50.762;7.000;2023-05-10T11:06:30;2.13;;;1.50;;
14883;SDS011;7534;50.762;7.000;2023-05-10T11:08:58;1.70;;;1.60;;
14883;SDS011;7534;50.762;7.000;2023-05-10T11:11:30;1.67;;;1.58;;
14883;SDS011;7534;50.762;7.000;2023-05-10T11:13:56;1.95;;;1.60;;
14883;SDS011;7534;50.762;7.000;2023-05-10T11:16:40;1.70;;;1.60;;
14883;SDS011;7534;50.762;7.000;2023-05-10T11:19:13;1.50;;;1.40;;
14883;SDS011;7534;50.762;7.000;2023-05-10T11:21:51;1.80;;;1.70;;
14883;SDS011;7534;50.762;7.000;2023-05-10T11:24:38;1.40;;;1.30;;
14883;SDS011;7534;50.762;7.000;2023-05-10T11:27:05;1.45;;;1.35;;
14883;SDS011;7534;50.762;7.000;2023-05-10T11:29:31;1.50;;;1.40;;
14883;SDS011;7534;50.762;7.000;2023-05-10T11:31:57;1.50;;;1.40;;
14883;SDS011;7534;50.762;7.000;2023-05-10T11:34:25;1.50;;;1.40;;
14883;SDS011;7534;50.762;7.000;2023-05-10T11:36:58;2.55;;;1.20;;
14883;SDS011;7534;50.762;7.000;2023-05-10T11:39:28;1.92;;;1.40;;
14883;SDS011;7534;50.762;7.000;2023-05-10T11:41:55;1.30;;;1.30;;
14883;SDS011;7534;50.762;7.000;2023-05-10T11:44:23;1.10;;;1.10;;
14883;SDS011;7534;50.762;7.000;2023-05-10T11:46:54;1.40;;;1.30;;
14883;SDS011;7534;50.762;7.000;2023-05-10T11:49:23;1.33;;;1.23;;
14883;SDS011;7534;50.762;7.000;2023-05-10T11:51:50;1.25;;;1.23;;
14883;SDS011;7534;50.762;7.000;2023-05-10T11:54:16;1.63;;;1.52;;
14883;SDS011;7534;50.762;7.000;2023-05-10T11:56:42;2.25;;;1.80;;
14883;SDS011;7534;50.762;7.000;2023-05-10T11:59:07;1.50;;;1.40;;
14883;SDS011;7534;50.762;7.000;2023-05-10T12:01:33;4.78;;;1.35;;
14883;SDS011;7534;50.762;7.000;2023-05-10T12:04:00;1.40;;;1.30;;
14883;SDS011;7534;50.762;7.000;2023-05-10T12:06:27;1.40;;;1.30;;
14883;SDS011;7534;50.762;7.000;2023-05-10T12:08:56;1.45;;;1.20;;
14883;SDS011;7534;50.762;7.000;2023-05-10T12:11:25;1.20;;;1.20;;
14883;SDS011;7534;50.762;7.000;2023-05-10T12:13:53;1.73;;;1.20;;
14883;SDS011;7534;50.762;7.000;2023-05-10T12:16:22;1.20;;;1.20;;
14883;SDS011;7534;50.762;7.000;2023-05-10T12:18:50;1.80;;;1.13;;
14883;SDS011;7534;50.762;7.000;2023-05-10T12:21:18;1.08;;;1.02;;
14883;SDS011;7534;50.762;7.000;2023-05-10T12:23:52;1.23;;;1.00;;
14883;SDS011;7534;50.762;7.000;2023-05-10T12:26:23;1.10;;;1.10;;
14883;SDS011;7534;50.762;7.000;2023-05-10T12:29:00;1.15;;;1.15;;
14883;SDS011;7534;50.762;7.000;2023-05-10T12:31:53;1.27;;;1.10;;
14883;SDS011;7534;50.762;7.000;2023-05-10T12:34:32;2.20;;;1.20;;
14883;SDS011;7534;50.762;7.000;2023-05-10T12:37:01;1.45;;;1.38;;
14883;SDS011;7534;50.762;7.000;2023-05-10T12:39:41;5.75;;;1.67;;
14883;SDS011;7534;50.762;7.000;2023-05-10T12:42:11;1.63;;;1.35;;
14883;SDS011;7534;50.762;7.000;2023-05-10T12:44:36;1.13;;;1.02;;
14883;SDS011;7534;50.762;7.000;2023-05-10T12:47:03;1.20;;;1.10;;
14883;SDS011;7534;50.762;7.000;2023-05-10T12:49:28;1.40;;;1.13;;
14883;SDS011;7534;50.762;7.000;2023-05-10T12:51:54;1.00;;;1.00;;
14883;SDS011;7534;50.762;7.000;2023-05-10T12:54:20;1.20;;;1.10;;
14883;SDS011;7534;50.762;7.000;2023-05-10T12:56:46;2.42;;;1.35;;
14883;SDS011;7534;50.762;7.000;2023-05-10T12:59:11;1.27;;;1.20;;
14883;SDS011;7534;50.762;7.000;2023-05-10T13:01:37;1.77;;;1.50;;
14883;SDS011;7534;50.762;7.000;2023-05-10T13:04:03;1.30;;;1.20;;
14883;SDS011;7534;50.762;7.000;2023-05-10T13:06:28;1.55;;;1.25;;
14883;SDS011;7534;50.762;7.000;2023-05-10T13:08:55;1.33;;;1.30;;
14883;SDS011;7534;50.762;7.000;2023-05-10T13:11:22;1.92;;;1.45;;
14883;SDS011;7534;50.762;7.000;2023-05-10T13:13:48;1.40;;;1.30;;
14883;SDS011;7534;50.762;7.000;2023-05-10T13:16:13;1.30;;;1.30;;
14883;SDS011;7534;50.762;7.000;2023-05-10T13:18:39;1.58;;;1.25;;
14883;SDS011;7534;50.762;7.000;2023-05-10T13:21:05;1.60;;;1.20;;
14883;SDS011;7534;50.762;7.000;2023-05-10T13:23:30;1.40;;;1.30;;
14883;SDS011;7534;50.762;7.000;2023-05-10T13:25:56;1.30;;;1.30;;
14883;SDS011;7534;50.762;7.000;2023-05-10T13:28:22;2.55;;;1.40;;
14883;SDS011;7534;50.762;7.000;2023-05-10T13:30:47;2.50;;;1.40;;
14883;SDS011;7534;50.762;7.000;2023-05-10T13:33:13;3.90;;;1.40;;
14883;SDS011;7534;50.762;7.000;2023-05-10T13:35:39;1.67;;;1.40;;
14883;SDS011;7534;50.762;7.000;2023-05-10T13:38:04;2.35;;;1.40;;
14883;SDS011;7534;50.762;7.000;2023-05-10T13:40:32;1.30;;;1.20;;
14883;SDS011;7534;50.762;7.000;2023-05-10T13:42:58;1.20;;;1.20;;
14883;SDS011;7534;50.762;7.000;2023-05-10T13:45:24;1.83;;;1.50;;
14883;SDS011;7534;50.762;7.000;2023-05-10T13:47:50;2.97;;;1.70;;
14883;SDS011;7534;50.762;7.000;2023-05-10T13:50:15;2.15;;;1.30;;
14883;SDS011;7534;50.762;7.000;2023-05-10T13:52:41;2.28;;;1.30;;
14883;SDS011;7534;50.762;7.000;2023-05-10T13:55:07;1.30;;;1.20;;
14883;SDS011;7534;50.762;7.000;2023-05-10T13:57:33;1.63;;;1.23;;
14883;SDS011;7534;50.762;7.000;2023-05-10T14:00:00;1.75;;;1.50;;
14883;SDS011;7534;50.762;7.000;2023-05-10T14:02:26;3.67;;;1.40;;
14883;SDS011;7534;50.762;7.000;2023-05-10T14:04:52;1.77;;;1.35;;
14883;SDS011;7534;50.762;7.000;2023-05-10T14:07:18;2.28;;;1.67;;
14883;SDS011;7534;50.762;7.000;2023-05-10T14:09:44;1.70;;;1.33;;
14883;SDS011;7534;50.762;7.000;2023-05-10T14:12:09;1.13;;;1.10;;
14883;SDS011;7534;50.762;7.000;2023-05-10T14:14:35;1.50;;;1.20;;
14883;SDS011;7534;50.762;7.000;2023-05-10T14:17:01;1.55;;;1.27;;
14883;SDS011;7534;50.762;7.000;2023-05-10T14:19:26;1.40;;;1.30;;
14883;SDS011;7534;50.762;7.000;2023-05-10T14:21:52;1.30;;;1.13;;
14883;SDS011;7534;50.762;7.000;2023-05-10T14:24:18;1.38;;;1.10;;
14883;SDS011;7534;50.762;7.000;2023-05-10T14:26:44;1.40;;;1.20;;
14883;SDS011;7534;50.762;7.000;2023-05-10T14:29:09;1.45;;;1.35;;
14883;SDS011;7534;50.762;7.000;2023-05-10T14:31:35;1.40;;;1.30;;
14883;SDS011;7534;50.762;7.000;2023-05-10T14:34:01;1.48;;;1.30;;
14883;SDS011;7534;50.762;7.000;2023-05-10T14:36:26;1.77;;;1.33;;
14883;SDS011;7534;50.762;7.000;2023-05-10T14:38:52;2.22;;;1.38;;
14883;SDS011;7534;50.762;7.000;2023-05-10T14:41:19;1.40;;;1.30;;
14883;SDS011;7534;50.762;7.000;2023-05-10T14:43:44;2.15;;;1.42;;
14883;SDS011;7534;50.762;7.000;2023-05-10T14:46:10;1.23;;;1.13;;
14883;SDS011;7534;50.762;7.000;2023-05-10T14:48:36;1.55;;;1.30;;
14883;SDS011;7534;50.762;7.000;2023-05-10T14:51:02;1.25;;;1.15;;
14883;SDS011;7534;50.762;7.000;2023-05-10T14:53:28;1.88;;;1.60;;
14883;SDS011;7534;50.762;7.000;2023-05-10T14:55:54;1.60;;;1.50;;
14883;SDS011;7534;50.762;7.000;2023-05-10T14:58:19;1.60;;;1.50;;
14883;SDS011;7534;50.762;7.000;2023-05-10T15:00:45;1.92;;;1.70;;
14883;SDS011;7534;50.762;7.000;2023-05-10T15:03:11;3.92;;;1.50;;
14883;SDS011;7534;50.762;7.000;2023-05-10T15:05:37;2.15;;;1.90;;
14883;SDS011;7534;50.762;7.000;2023-05-10T15:08:03;1.88;;;1.70;;
14883;SDS011;7534;50.762;7.000;2023-05-10T15:10:29;4.05;;;1.60;;
14883;SDS011;7534;50.762;7.000;2023-05-10T15:12:55;1.90;;;1.80;;
14883;SDS011;7534;50.762;7.000;2023-05-10T15:15:21;1.85;;;1.50;;
14883;SDS011;7534;50.762;7.000;2023-05-10T15:17:47;3.55;;;1.60;;
14883;SDS011;7534;50.762;7.000;2023-05-10T15:20:13;1.50;;;1.40;;
14883;SDS011;7534;50.762;7.000;2023-05-10T15:22:39;1.92;;;1.70;;
14883;SDS011;7534;50.762;7.000;2023-05-10T15:25:06;1.95;;;1.80;;
14883;SDS011;7534;50.762;7.000;2023-05-10T15:27:32;1.80;;;1.67;;